sensor_id;sensor_type;location;lat;lon;timestamp;pressure;altitude;pressure_sealevel;temperature;humidity
72802;BME280;61891;55.818;37.084;2022-10-16T00:01:13;100724.50;;;3.91;62.93
72802;BME280;61891;55.818;37.084;2022-10-16T00:03:40;100733.69;;;3.98;62.49
72802;BME280;61891;55.818;37.084;2022-10-16T00:06:08;100731.44;;;3.92;62.66
72802;BME280;61891;55.818;37.084;2022-10-16T00:08:35;100695.13;;;3.70;62.80
72802;BME280;61891;55.818;37.084;2022-10-16T00:11:09;100710.59;;;3.74;63.04
72802;BME280;61891;55.818;37.084;2022-10-16T00:13:37;100742.75;;;3.92;63.06
72802;BME280;61891;55.818;37.084;2022-10-16T00:16:03;100736.28;;;3.83;63.54
72802;BME280;61891;55.818;37.084;2022-10-16T00:18:29;100737.22;;;3.82;63.54
72802;BME280;61891;55.818;37.084;2022-10-16T00:21:00;100750.16;;;3.85;63.75
72802;BME280;61891;55.818;37.084;2022-10-16T00:23:45;100742.66;;;3.79;63.60
72802;BME280;61891;55.818;37.084;2022-10-16T00:26:14;100624.09;;;3.00;63.08
72802;BME280;61891;55.818;37.084;2022-10-16T00:28:41;100745.63;;;3.73;63.73
72802;BME280;61891;55.818;37.084;2022-10-16T00:31:10;100749.53;;;3.66;63.06
72802;BME280;61891;55.818;37.084;2022-10-16T00:33:37;100751.31;;;3.66;63.17
72802;BME280;61891;55.818;37.084;2022-10-16T00:36:04;100747.63;;;3.54;63.25
72802;BME280;61891;55.818;37.084;2022-10-16T00:38:30;100751.00;;;3.56;63.76
72802;BME280;61891;55.818;37.084;2022-10-16T00:40:56;100761.31;;;3.59;63.77
72802;BME280;61891;55.818;37.084;2022-10-16T00:43:38;100692.34;;;3.13;63.92
72802;BME280;61891;55.818;37.084;2022-10-16T00:46:09;100699.84;;;3.19;63.82
72802;BME280;61891;55.818;37.084;2022-10-16T00:48:36;100741.22;;;3.44;63.97
72802;BME280;61891;55.818;37.084;2022-10-16T00:51:04;100703.75;;;3.12;62.86
72802;BME280;61891;55.818;37.084;2022-10-16T00:53:31;100756.94;;;3.44;63.63
72802;BME280;61891;55.818;37.084;2022-10-16T00:55:57;100754.66;;;3.38;63.84
72802;BME280;61891;55.818;37.084;2022-10-16T00:58:22;100752.31;;;3.33;64.13
72802;BME280;61891;55.818;37.084;2022-10-16T01:00:48;100755.09;;;3.30;63.23
72802;BME280;61891;55.818;37.084;2022-10-16T01:03:32;100764.66;;;3.31;62.56
72802;BME280;61891;55.818;37.084;2022-10-16T01:06:23;100767.53;;;3.27;62.74
72802;BME280;61891;55.818;37.084;2022-10-16T01:14:20;100733.75;;;2.90;64.10
72802;BME280;61891;55.818;37.084;2022-10-16T01:17:07;100770.00;;;3.14;64.11
72802;BME280;61891;55.818;37.084;2022-10-16T01:22:26;100778.44;;;3.03;64.05
72802;BME280;61891;55.818;37.084;2022-10-16T01:25:00;100742.88;;;2.83;64.32
72802;BME280;61891;55.818;37.084;2022-10-16T01:27:34;100780.13;;;3.04;64.74
72802;BME280;61891;55.818;37.084;2022-10-16T01:30:07;100758.06;;;2.92;64.65
72802;BME280;61891;55.818;37.084;2022-10-16T01:32:55;100783.69;;;3.03;63.78
72802;BME280;61891;55.818;37.084;2022-10-16T01:35:36;100784.53;;;3.04;64.81
72802;BME280;61891;55.818;37.084;2022-10-16T01:38:25;100760.00;;;2.89;64.25
72802;BME280;61891;55.818;37.084;2022-10-16T01:41:00;100731.28;;;2.72;64.97
72802;BME280;61891;55.818;37.084;2022-10-16T01:43:40;100747.50;;;2.78;65.04
72802;BME280;61891;55.818;37.084;2022-10-16T01:46:08;100713.56;;;2.61;64.82
72802;BME280;61891;55.818;37.084;2022-10-16T01:48:36;100774.31;;;2.99;64.96
72802;BME280;61891;55.818;37.084;2022-10-16T01:51:06;100782.16;;;2.99;65.01
72802;BME280;61891;55.818;37.084;2022-10-16T01:53:33;100767.03;;;2.88;64.58
72802;BME280;61891;55.818;37.084;2022-10-16T01:56:00;100752.06;;;2.75;64.93
72802;BME280;61891;55.818;37.084;2022-10-16T01:58:28;100762.38;;;2.78;64.84
72802;BME280;61891;55.818;37.084;2022-10-16T02:01:01;100776.75;;;2.86;64.84
72802;BME280;61891;55.818;37.084;2022-10-16T02:03:28;100775.13;;;2.84;64.59
72802;BME280;61891;55.818;37.084;2022-10-16T02:05:55;100767.94;;;2.72;64.56
72802;BME280;61891;55.818;37.084;2022-10-16T02:08:24;100778.25;;;2.75;64.69
72802;BME280;61891;55.818;37.084;2022-10-16T02:10:55;100766.81;;;2.60;64.29
72802;BME280;61891;55.818;37.084;2022-10-16T02:13:29;100718.41;;;2.36;64.57
72802;BME280;61891;55.818;37.084;2022-10-16T02:15:56;100724.50;;;2.36;65.10
72802;BME280;61891;55.818;37.084;2022-10-16T02:18:22;100780.34;;;2.68;64.44
72802;BME280;61891;55.818;37.084;2022-10-16T02:21:48;100773.66;;;2.63;65.02
72802;BME280;61891;55.818;37.084;2022-10-16T02:26:57;100796.81;;;2.70;64.96
72802;BME280;61891;55.818;37.084;2022-10-16T02:29:26;100772.78;;;2.46;64.63
72802;BME280;61891;55.818;37.084;2022-10-16T02:31:56;100798.31;;;2.58;64.26
72802;BME280;61891;55.818;37.084;2022-10-16T02:34:25;100785.19;;;2.43;64.70
72802;BME280;61891;55.818;37.084;2022-10-16T02:36:55;100795.41;;;2.47;65.08
72802;BME280;61891;55.818;37.084;2022-10-16T02:39:21;100781.88;;;2.39;65.43
72802;BME280;61891;55.818;37.084;2022-10-16T02:41:48;100796.59;;;2.42;65.54
72802;BME280;61891;55.818;37.084;2022-10-16T02:44:13;100803.34;;;2.46;65.88
72802;BME280;61891;55.818;37.084;2022-10-16T02:46:39;100795.34;;;2.49;65.68
72802;BME280;61891;55.818;37.084;2022-10-16T02:49:05;100794.25;;;2.53;66.01
72802;BME280;61891;55.818;37.084;2022-10-16T02:51:30;100792.31;;;2.56;65.97
72802;BME280;61891;55.818;37.084;2022-10-16T02:53:56;100736.59;;;2.21;65.94
72802;BME280;61891;55.818;37.084;2022-10-16T02:56:22;100774.13;;;2.38;66.03
72802;BME280;61891;55.818;37.084;2022-10-16T02:58:47;100780.13;;;2.40;66.20
72802;BME280;61891;55.818;37.084;2022-10-16T03:01:13;100776.91;;;2.35;65.82
72802;BME280;61891;55.818;37.084;2022-10-16T03:03:42;100800.31;;;2.53;65.99
72802;BME280;61891;55.818;37.084;2022-10-16T03:06:08;100807.41;;;2.51;65.60
72802;BME280;61891;55.818;37.084;2022-10-16T03:08:34;100800.31;;;2.53;66.31
72802;BME280;61891;55.818;37.084;2022-10-16T03:11:00;100807.41;;;2.51;66.55
72802;BME280;61891;55.818;37.084;2022-10-16T03:13:27;100809.19;;;2.51;66.04
72802;BME280;61891;55.818;37.084;2022-10-16T03:15:53;100810.19;;;2.48;65.69
72802;BME280;61891;55.818;37.084;2022-10-16T03:18:19;100781.00;;;2.23;65.46
72802;BME280;61891;55.818;37.084;2022-10-16T03:20:44;100788.59;;;2.28;65.41
72802;BME280;61891;55.818;37.084;2022-10-16T03:23:10;100794.84;;;2.25;65.73
72802;BME280;61891;55.818;37.084;2022-10-16T03:25:36;100818.69;;;2.36;66.15
72802;BME280;61891;55.818;37.084;2022-10-16T03:28:02;100801.06;;;2.22;66.25
72802;BME280;61891;55.818;37.084;2022-10-16T03:30:28;100805.31;;;2.25;66.20
72802;BME280;61891;55.818;37.084;2022-10-16T03:32:54;100794.31;;;2.18;66.23
72802;BME280;61891;55.818;37.084;2022-10-16T03:35:21;100812.06;;;2.29;66.26
72802;BME280;61891;55.818;37.084;2022-10-16T03:37:47;100786.69;;;2.14;65.66
72802;BME280;61891;55.818;37.084;2022-10-16T03:40:13;100797.16;;;2.14;66.09
72802;BME280;61891;55.818;37.084;2022-10-16T03:42:39;100831.31;;;2.28;65.41
72802;BME280;61891;55.818;37.084;2022-10-16T03:45:05;100833.47;;;2.20;65.67
72802;BME280;61891;55.818;37.084;2022-10-16T03:47:31;100839.78;;;2.16;66.01
72802;BME280;61891;55.818;37.084;2022-10-16T03:49:59;100833.78;;;2.14;66.19
72802;BME280;61891;55.818;37.084;2022-10-16T03:52:25;100818.69;;;2.02;66.46
72802;BME280;61891;55.818;37.084;2022-10-16T03:54:50;100818.38;;;2.08;66.44
72802;BME280;61891;55.818;37.084;2022-10-16T03:57:16;100824.16;;;2.14;66.36
72802;BME280;61891;55.818;37.084;2022-10-16T03:59:42;100820.53;;;2.17;66.73
72802;BME280;61891;55.818;37.084;2022-10-16T04:02:08;100811.00;;;2.16;66.75
72802;BME280;61891;55.818;37.084;2022-10-16T04:04:34;100761.72;;;1.91;66.71
72802;BME280;61891;55.818;37.084;2022-10-16T04:07:00;100818.53;;;2.22;66.24
72802;BME280;61891;55.818;37.084;2022-10-16T04:09:26;100810.78;;;2.20;66.44
72802;BME280;61891;55.818;37.084;2022-10-16T04:11:51;100796.22;;;2.15;66.24
72802;BME280;61891;55.818;37.084;2022-10-16T04:14:17;100811.69;;;2.19;66.27
72802;BME280;61891;55.818;37.084;2022-10-16T04:16:43;100816.78;;;2.22;66.23
72802;BME280;61891;55.818;37.084;2022-10-16T04:19:09;100838.84;;;2.34;66.69
72802;BME280;61891;55.818;37.084;2022-10-16T04:21:36;100832.59;;;2.37;66.43
72802;BME280;61891;55.818;37.084;2022-10-16T04:24:02;100819.06;;;2.29;66.62
72802;BME280;61891;55.818;37.084;2022-10-16T04:26:28;100826.53;;;2.36;66.40
72802;BME280;61891;55.818;37.084;2022-10-16T04:28:54;100806.91;;;2.28;66.52
72802;BME280;61891;55.818;37.084;2022-10-16T04:31:20;100839.13;;;2.45;66.58
72802;BME280;61891;55.818;37.084;2022-10-16T04:33:46;100842.38;;;2.50;66.61
72802;BME280;61891;55.818;37.084;2022-10-16T04:36:12;100832.91;;;2.48;66.37
72802;BME280;61891;55.818;37.084;2022-10-16T04:38:38;100844.59;;;2.58;66.35
72802;BME280;61891;55.818;37.084;2022-10-16T04:41:07;100831.56;;;2.56;66.56
72802;BME280;61891;55.818;37.084;2022-10-16T04:43:33;100846.81;;;2.66;66.25
72802;BME280;61891;55.818;37.084;2022-10-16T04:45:59;100839.72;;;2.68;65.93
72802;BME280;61891;55.818;37.084;2022-10-16T04:48:25;100837.88;;;2.70;65.63
72802;BME280;61891;55.818;37.084;2022-10-16T04:50:51;100847.00;;;2.78;65.67
72802;BME280;61891;55.818;37.084;2022-10-16T04:53:16;100813.53;;;2.68;65.48
72802;BME280;61891;55.818;37.084;2022-10-16T04:55:43;100817.03;;;2.84;65.28
72802;BME280;61891;55.818;37.084;2022-10-16T04:58:09;100815.34;;;2.83;65.20
72802;BME280;61891;55.818;37.084;2022-10-16T05:00:35;100841.13;;;3.06;64.99
72802;BME280;61891;55.818;37.084;2022-10-16T05:03:01;100850.88;;;3.20;65.39
72802;BME280;61891;55.818;37.084;2022-10-16T05:05:27;100843.53;;;3.27;64.92
72802;BME280;61891;55.818;37.084;2022-10-16T05:07:53;100823.91;;;3.18;64.90
72802;BME280;61891;55.818;37.084;2022-10-16T05:10:20;100850.53;;;3.42;64.80
72802;BME280;61891;55.818;37.084;2022-10-16T05:12:46;100843.59;;;3.41;64.48
72802;BME280;61891;55.818;37.084;2022-10-16T05:15:12;100813.00;;;3.26;64.46
72802;BME280;61891;55.818;37.084;2022-10-16T05:17:38;100792.81;;;3.28;64.68
72802;BME280;61891;55.818;37.084;2022-10-16T05:20:04;100846.72;;;3.63;63.99
72802;BME280;61891;55.818;37.084;2022-10-16T05:22:29;100853.72;;;3.78;64.08
72802;BME280;61891;55.818;37.084;2022-10-16T05:24:55;100857.50;;;3.88;63.81
72802;BME280;61891;55.818;37.084;2022-10-16T05:27:21;100856.22;;;3.96;63.96
72802;BME280;61891;55.818;37.084;2022-10-16T05:29:48;100805.00;;;3.74;63.98
72802;BME280;61891;55.818;37.084;2022-10-16T05:32:17;100861.53;;;4.10;63.82
72802;BME280;61891;55.818;37.084;2022-10-16T05:34:44;100864.53;;;4.18;63.48
72802;BME280;61891;55.818;37.084;2022-10-16T05:37:10;100858.94;;;4.24;63.13
72802;BME280;61891;55.818;37.084;2022-10-16T05:39:37;100862.91;;;4.31;63.43
72802;BME280;61891;55.818;37.084;2022-10-16T05:42:04;100860.56;;;4.41;62.99
72802;BME280;61891;55.818;37.084;2022-10-16T05:44:30;100872.50;;;4.46;63.00
72802;BME280;61891;55.818;37.084;2022-10-16T05:46:56;100862.19;;;4.58;63.04
72802;BME280;61891;55.818;37.084;2022-10-16T05:49:21;100828.22;;;4.40;62.80
72802;BME280;61891;55.818;37.084;2022-10-16T05:51:47;100865.88;;;4.69;62.80
72802;BME280;61891;55.818;37.084;2022-10-16T05:54:13;100859.69;;;4.70;62.65
72802;BME280;61891;55.818;37.084;2022-10-16T05:56:38;100872.63;;;4.88;62.70
72802;BME280;61891;55.818;37.084;2022-10-16T05:59:04;100873.84;;;4.96;62.51
72802;BME280;61891;55.818;37.084;2022-10-16T06:01:30;100839.41;;;4.86;62.43
72802;BME280;61891;55.818;37.084;2022-10-16T06:03:56;100841.09;;;5.02;62.57
72802;BME280;61891;55.818;37.084;2022-10-16T06:06:25;100843.81;;;5.14;62.64
72802;BME280;61891;55.818;37.084;2022-10-16T06:08:53;100870.56;;;5.35;61.98
72802;BME280;61891;55.818;37.084;2022-10-16T06:11:23;100854.13;;;5.32;62.15
72802;BME280;61891;55.818;37.084;2022-10-16T06:13:50;100854.94;;;5.46;61.60
72802;BME280;61891;55.818;37.084;2022-10-16T06:16:17;100860.19;;;5.61;62.02
72802;BME280;61891;55.818;37.084;2022-10-16T06:18:43;100865.28;;;5.76;61.50
72802;BME280;61891;55.818;37.084;2022-10-16T06:21:12;100869.59;;;5.92;61.53
72802;BME280;61891;55.818;37.084;2022-10-16T06:23:38;100878.47;;;6.03;61.22
72802;BME280;61891;55.818;37.084;2022-10-16T06:26:11;100760.94;;;5.50;60.88
72802;BME280;61891;55.818;37.084;2022-10-16T06:28:40;100860.81;;;6.18;60.89
72802;BME280;61891;55.818;37.084;2022-10-16T06:31:07;100871.81;;;6.37;60.95
72802;BME280;61891;55.818;37.084;2022-10-16T06:33:33;100871.94;;;6.49;60.53
72802;BME280;61891;55.818;37.084;2022-10-16T06:38:28;100862.34;;;6.60;59.87
72802;BME280;61891;55.818;37.084;2022-10-16T06:40:54;100873.44;;;6.78;59.97
72802;BME280;61891;55.818;37.084;2022-10-16T06:43:21;100829.78;;;6.61;59.77
72802;BME280;61891;55.818;37.084;2022-10-16T06:45:56;100874.16;;;6.80;59.23
72802;BME280;61891;55.818;37.084;2022-10-16T06:48:23;100875.44;;;6.87;58.80
72802;BME280;61891;55.818;37.084;2022-10-16T06:50:56;100877.72;;;7.04;59.04
72802;BME280;61891;55.818;37.084;2022-10-16T06:53:23;100868.22;;;7.15;58.67
72802;BME280;61891;55.818;37.084;2022-10-16T06:55:48;100878.22;;;7.35;58.71
72802;BME280;61891;55.818;37.084;2022-10-16T06:58:14;100873.13;;;7.44;58.74
72802;BME280;61891;55.818;37.084;2022-10-16T07:00:40;100870.72;;;7.65;58.33
72802;BME280;61891;55.818;37.084;2022-10-16T07:03:06;100872.66;;;7.87;58.10
72802;BME280;61891;55.818;37.084;2022-10-16T07:05:31;100878.50;;;8.03;58.24
72802;BME280;61891;55.818;37.084;2022-10-16T07:07:57;100878.19;;;8.19;58.06
72802;BME280;61891;55.818;37.084;2022-10-16T07:10:22;100878.97;;;8.32;58.01
72802;BME280;61891;55.818;37.084;2022-10-16T07:12:51;100839.31;;;8.21;57.48
72802;BME280;61891;55.818;37.084;2022-10-16T07:15:17;100874.63;;;8.55;57.50
72802;BME280;61891;55.818;37.084;2022-10-16T07:17:42;100889.78;;;8.64;57.25
72802;BME280;61891;55.818;37.084;2022-10-16T07:20:09;100882.81;;;8.75;57.18
72802;BME280;61891;55.818;37.084;2022-10-16T07:22:34;100887.53;;;8.93;56.43
72802;BME280;61891;55.818;37.084;2022-10-16T07:25:00;100887.06;;;9.11;56.25
72802;BME280;61891;55.818;37.084;2022-10-16T07:27:26;100865.16;;;9.20;56.61
72802;BME280;61891;55.818;37.084;2022-10-16T07:29:52;100843.41;;;9.16;56.50
72802;BME280;61891;55.818;37.084;2022-10-16T07:32:17;100820.81;;;9.01;56.20
72802;BME280;61891;55.818;37.084;2022-10-16T07:34:43;100889.56;;;9.57;55.65
72802;BME280;61891;55.818;37.084;2022-10-16T07:37:09;100876.69;;;9.52;55.66
72802;BME280;61891;55.818;37.084;2022-10-16T07:39:35;100889.66;;;9.66;54.97
72802;BME280;61891;55.818;37.084;2022-10-16T07:42:00;100853.22;;;9.48;54.47
72802;BME280;61891;55.818;37.084;2022-10-16T07:44:26;100877.56;;;9.85;54.43
72802;BME280;61891;55.818;37.084;2022-10-16T07:46:52;100892.22;;;10.00;53.93
72802;BME280;61891;55.818;37.084;2022-10-16T07:49:17;100887.00;;;10.21;53.83
72802;BME280;61891;55.818;37.084;2022-10-16T07:51:43;100885.59;;;10.38;53.62
72802;BME280;61891;55.818;37.084;2022-10-16T07:54:09;100900.38;;;10.51;53.16
72802;BME280;61891;55.818;37.084;2022-10-16T07:56:35;100870.03;;;10.44;52.92
72802;BME280;61891;55.818;37.084;2022-10-16T07:59:01;100879.41;;;10.69;52.46
72802;BME280;61891;55.818;37.084;2022-10-16T08:01:27;100886.31;;;10.81;52.21
72802;BME280;61891;55.818;37.084;2022-10-16T08:03:53;100854.03;;;10.76;52.16
72802;BME280;61891;55.818;37.084;2022-10-16T08:06:20;100855.50;;;10.90;52.04
72802;BME280;61891;55.818;37.084;2022-10-16T08:08:47;100881.19;;;11.20;51.46
72802;BME280;61891;55.818;37.084;2022-10-16T08:11:13;100886.34;;;11.52;49.71
72802;BME280;61891;55.818;37.084;2022-10-16T08:13:41;100894.31;;;12.02;49.38
72802;BME280;61891;55.818;37.084;2022-10-16T08:16:07;100885.88;;;12.54;48.18
72802;BME280;61891;55.818;37.084;2022-10-16T08:18:42;100876.63;;;13.15;47.86
72802;BME280;61891;55.818;37.084;2022-10-16T08:21:13;100864.63;;;13.66;46.55
72802;BME280;61891;55.818;37.084;2022-10-16T08:23:39;100876.22;;;14.10;44.57
72802;BME280;61891;55.818;37.084;2022-10-16T08:26:07;100872.09;;;14.51;44.70
72802;BME280;61891;55.818;37.084;2022-10-16T08:28:33;100854.84;;;14.89;44.02
72802;BME280;61891;55.818;37.084;2022-10-16T08:33:32;100867.97;;;15.85;43.17
72802;BME280;61891;55.818;37.084;2022-10-16T08:36:01;100842.06;;;15.85;42.08
72802;BME280;61891;55.818;37.084;2022-10-16T08:38:26;100853.81;;;16.17;41.81
72802;BME280;61891;55.818;37.084;2022-10-16T08:48:53;100871.47;;;17.07;39.14
72802;BME280;61891;55.818;37.084;2022-10-16T08:51:20;100878.13;;;17.19;37.45
72802;BME280;61891;55.818;37.084;2022-10-16T08:53:59;100872.38;;;17.38;36.93
72802;BME280;61891;55.818;37.084;2022-10-16T08:56:27;100830.91;;;17.18;37.29
72802;BME280;61891;55.818;37.084;2022-10-16T08:58:58;100883.31;;;17.68;35.92
72802;BME280;61891;55.818;37.084;2022-10-16T09:01:45;100853.31;;;17.64;36.09
72802;BME280;61891;55.818;37.084;2022-10-16T09:04:43;100870.91;;;17.98;35.60
72802;BME280;61891;55.818;37.084;2022-10-16T09:12:38;100869.81;;;18.30;34.11
72802;BME280;61891;55.818;37.084;2022-10-16T09:15:14;100870.06;;;18.43;33.19
72802;BME280;61891;55.818;37.084;2022-10-16T09:18:07;100873.69;;;18.50;33.15
72802;BME280;61891;55.818;37.084;2022-10-16T09:20:53;100876.38;;;18.50;32.13
72802;BME280;61891;55.818;37.084;2022-10-16T09:23:26;100866.19;;;18.60;32.12
72802;BME280;61891;55.818;37.084;2022-10-16T09:25:53;100846.53;;;18.83;32.55
72802;BME280;61891;55.818;37.084;2022-10-16T09:28:19;100835.97;;;18.96;32.48
72802;BME280;61891;55.818;37.084;2022-10-16T09:30:46;100880.56;;;19.05;30.04
72802;BME280;61891;55.818;37.084;2022-10-16T09:33:15;100869.78;;;18.76;30.45
72802;BME280;61891;55.818;37.084;2022-10-16T09:35:50;100869.06;;;18.59;30.74
72802;BME280;61891;55.818;37.084;2022-10-16T09:40:48;100858.69;;;18.93;29.72
72802;BME280;61891;55.818;37.084;2022-10-16T09:43:28;100847.09;;;18.78;29.03
72802;BME280;61891;55.818;37.084;2022-10-16T09:46:05;100832.72;;;18.86;30.06
72802;BME280;61891;55.818;37.084;2022-10-16T09:48:44;100866.00;;;19.14;28.87
72802;BME280;61891;55.818;37.084;2022-10-16T09:51:34;100877.03;;;19.19;29.46
72802;BME280;61891;55.818;37.084;2022-10-16T09:56:33;100811.78;;;18.96;28.98
72802;BME280;61891;55.818;37.084;2022-10-16T09:59:08;100861.00;;;19.26;28.60
72802;BME280;61891;55.818;37.084;2022-10-16T10:01:46;100848.56;;;19.25;28.79
72802;BME280;61891;55.818;37.084;2022-10-16T10:04:13;100844.78;;;19.19;29.04
72802;BME280;61891;55.818;37.084;2022-10-16T10:09:24;100838.06;;;19.45;28.90
72802;BME280;61891;55.818;37.084;2022-10-16T10:11:54;100831.09;;;19.65;29.41
72802;BME280;61891;55.818;37.084;2022-10-16T10:14:24;100835.41;;;20.02;29.48
72802;BME280;61891;55.818;37.084;2022-10-16T10:16:52;100845.53;;;20.43;28.12
72802;BME280;61891;55.818;37.084;2022-10-16T10:19:21;100778.31;;;20.07;28.42
72802;BME280;61891;55.818;37.084;2022-10-16T10:21:47;100841.53;;;20.60;27.80
72802;BME280;61891;55.818;37.084;2022-10-16T10:24:15;100845.69;;;20.63;27.38
72802;BME280;61891;55.818;37.084;2022-10-16T10:27:06;100823.72;;;20.87;27.46
72802;BME280;61891;55.818;37.084;2022-10-16T10:30:18;100819.03;;;21.02;27.01
72802;BME280;61891;55.818;37.084;2022-10-16T10:33:34;100822.78;;;21.42;26.79
72802;BME280;61891;55.818;37.084;2022-10-16T10:38:45;100822.56;;;22.31;26.68
72802;BME280;61891;55.818;37.084;2022-10-16T10:41:20;100830.03;;;22.56;26.45
72802;BME280;61891;55.818;37.084;2022-10-16T10:44:11;100723.22;;;21.94;25.32
72802;BME280;61891;55.818;37.084;2022-10-16T10:46:42;100818.16;;;22.63;25.71
72802;BME280;61891;55.818;37.084;2022-10-16T10:54:23;100833.16;;;22.52;25.28
72802;BME280;61891;55.818;37.084;2022-10-16T10:57:03;100809.66;;;22.53;24.41
72802;BME280;61891;55.818;37.084;2022-10-16T11:02:22;100813.56;;;22.90;24.57
72802;BME280;61891;55.818;37.084;2022-10-16T11:07:45;100791.97;;;22.64;24.68
72802;BME280;61891;55.818;37.084;2022-10-16T11:10:22;100805.56;;;23.22;24.51
72802;BME280;61891;55.818;37.084;2022-10-16T11:12:58;100806.28;;;23.55;24.06
72802;BME280;61891;55.818;37.084;2022-10-16T11:15:31;100801.03;;;23.92;24.14
72802;BME280;61891;55.818;37.084;2022-10-16T11:18:14;100810.63;;;24.19;24.22
72802;BME280;61891;55.818;37.084;2022-10-16T11:20:52;100813.34;;;24.19;22.87
72802;BME280;61891;55.818;37.084;2022-10-16T11:23:29;100782.09;;;23.92;22.89
72802;BME280;61891;55.818;37.084;2022-10-16T11:26:00;100810.06;;;24.42;23.21
72802;BME280;61891;55.818;37.084;2022-10-16T11:28:53;100817.81;;;24.82;23.73
72802;BME280;61891;55.818;37.084;2022-10-16T11:34:34;100808.31;;;25.46;21.93
72802;BME280;61891;55.818;37.084;2022-10-16T11:37:09;100801.50;;;25.06;21.99
72802;BME280;61891;55.818;37.084;2022-10-16T11:39:38;100794.38;;;24.87;21.92
72802;BME280;61891;55.818;37.084;2022-10-16T11:42:07;100817.72;;;24.70;21.50
72802;BME280;61891;55.818;37.084;2022-10-16T11:47:35;100815.81;;;24.52;21.68
72802;BME280;61891;55.818;37.084;2022-10-16T11:50:26;100777.50;;;24.67;21.98
72802;BME280;61891;55.818;37.084;2022-10-16T11:53:08;100813.56;;;25.11;21.79
72802;BME280;61891;55.818;37.084;2022-10-16T11:55:42;100796.09;;;25.36;21.99
72802;BME280;61891;55.818;37.084;2022-10-16T12:00:58;100810.69;;;25.72;21.64
72802;BME280;61891;55.818;37.084;2022-10-16T12:08:51;100804.88;;;25.68;21.84
72802;BME280;61891;55.818;37.084;2022-10-16T12:11:33;100778.75;;;25.37;20.58
72802;BME280;61891;55.818;37.084;2022-10-16T12:16:33;100785.31;;;25.48;21.23
72802;BME280;61891;55.818;37.084;2022-10-16T12:19:18;100797.41;;;25.64;21.26
72802;BME280;61891;55.818;37.084;2022-10-16T12:21:44;100807.34;;;25.40;20.82
72802;BME280;61891;55.818;37.084;2022-10-16T12:26:58;100777.78;;;25.62;21.13
72802;BME280;61891;55.818;37.084;2022-10-16T12:29:40;100797.50;;;25.57;21.29
72802;BME280;61891;55.818;37.084;2022-10-16T12:32:30;100783.78;;;25.52;20.95
72802;BME280;61891;55.818;37.084;2022-10-16T12:34:58;100759.38;;;25.34;20.71
72802;BME280;61891;55.818;37.084;2022-10-16T12:37:33;100748.63;;;25.27;21.12
72802;BME280;61891;55.818;37.084;2022-10-16T12:40:24;100723.00;;;25.23;20.69
72802;BME280;61891;55.818;37.084;2022-10-16T12:42:51;100773.41;;;25.61;21.12
72802;BME280;61891;55.818;37.084;2022-10-16T12:45:32;100775.81;;;25.39;20.76
72802;BME280;61891;55.818;37.084;2022-10-16T12:48:04;100753.22;;;25.27;20.93
72802;BME280;61891;55.818;37.084;2022-10-16T12:50:34;100782.03;;;25.28;20.63
72802;BME280;61891;55.818;37.084;2022-10-16T12:53:02;100784.88;;;25.33;20.92
72802;BME280;61891;55.818;37.084;2022-10-16T12:55:42;100749.06;;;25.24;21.17
72802;BME280;61891;55.818;37.084;2022-10-16T13:00:56;100780.97;;;25.59;21.50
72802;BME280;61891;55.818;37.084;2022-10-16T13:03:30;100779.63;;;25.50;21.07
72802;BME280;61891;55.818;37.084;2022-10-16T13:14:35;100771.78;;;25.12;21.08
72802;BME280;61891;55.818;37.084;2022-10-16T13:17:15;100783.38;;;24.82;21.04
72802;BME280;61891;55.818;37.084;2022-10-16T13:24:59;100774.97;;;23.66;21.97
72802;BME280;61891;55.818;37.084;2022-10-16T13:30:26;100771.13;;;23.42;22.44
72802;BME280;61891;55.818;37.084;2022-10-16T13:33:07;100775.00;;;23.14;22.04
72802;BME280;61891;55.818;37.084;2022-10-16T13:35:48;100764.53;;;22.60;22.58
72802;BME280;61891;55.818;37.084;2022-10-16T13:38:20;100769.56;;;22.30;23.36
72802;BME280;61891;55.818;37.084;2022-10-16T13:46:04;100756.22;;;21.69;23.99
72802;BME280;61891;55.818;37.084;2022-10-16T13:48:31;100770.63;;;21.29;24.81
72802;BME280;61891;55.818;37.084;2022-10-16T13:51:06;100765.97;;;20.40;24.90
72802;BME280;61891;55.818;37.084;2022-10-16T13:53:36;100770.00;;;18.93;26.02
72802;BME280;61891;55.818;37.084;2022-10-16T13:56:03;100772.03;;;18.10;27.09
72802;BME280;61891;55.818;37.084;2022-10-16T13:58:29;100756.84;;;17.79;27.55
72802;BME280;61891;55.818;37.084;2022-10-16T14:01:01;100711.31;;;17.71;27.63
72802;BME280;61891;55.818;37.084;2022-10-16T14:03:28;100743.63;;;18.15;27.62
72802;BME280;61891;55.818;37.084;2022-10-16T14:06:00;100710.34;;;17.87;27.80
72802;BME280;61891;55.818;37.084;2022-10-16T14:08:28;100769.78;;;17.98;28.54
72802;BME280;61891;55.818;37.084;2022-10-16T14:10:59;100734.13;;;17.13;28.59
72802;BME280;61891;55.818;37.084;2022-10-16T14:13:32;100766.31;;;16.50;29.85
72802;BME280;61891;55.818;37.084;2022-10-16T14:16:07;100750.81;;;15.88;30.29
72802;BME280;61891;55.818;37.084;2022-10-16T14:18:34;100769.25;;;15.41;31.00
72802;BME280;61891;55.818;37.084;2022-10-16T14:21:05;100708.72;;;14.57;31.40
72802;BME280;61891;55.818;37.084;2022-10-16T14:23:35;100728.22;;;14.32;32.32
72802;BME280;61891;55.818;37.084;2022-10-16T14:26:12;100774.88;;;14.28;32.40
72802;BME280;61891;55.818;37.084;2022-10-16T14:28:40;100769.66;;;14.00;33.59
72802;BME280;61891;55.818;37.084;2022-10-16T14:31:29;100769.16;;;13.79;33.56
72802;BME280;61891;55.818;37.084;2022-10-16T14:33:55;100758.94;;;13.57;33.64
72802;BME280;61891;55.818;37.084;2022-10-16T14:36:22;100761.00;;;13.45;34.08